Time;durP1;ratioP1;P1;durP2;ratioP2;P2;SDS_P1;SDS_P2;PMS_P1;PMS_P2;Temp;Humidity;BMP_temperature;BMP_pressure;BME280_temperature;BME280_humidity;BME280_pressure;Samples;Min_cycle;Max_cycle;Signal;HPM_P1;HPM_P2
2023/07/27 00:01:12;;;;;;;6.05;3.30;;;;;;;18.18;100.00;101006.53;5092780;28;20424;-71
2023/07/27 00:03:38;;;;;;;6.88;3.08;;;;;;;18.10;100.00;101003.50;5092221;28;20455;-72
2023/07/27 00:06:03;;;;;;;6.63;3.10;;;;;;;18.13;100.00;101003.31;5093316;28;20035;-74
2023/07/27 00:08:29;;;;;;;7.05;3.08;;;;;;;18.11;100.00;100999.88;5092309;28;20557;-66
2023/07/27 00:10:55;;;;;;;4.45;2.55;;;;;;;18.07;100.00;100987.66;5091581;28;20028;-73
2023/07/27 00:13:20;;;;;;;6.80;2.95;;;;;;;18.05;100.00;100994.88;5092192;28;20027;-73
2023/07/27 00:15:45;;;;;;;5.78;3.00;;;;;;;18.04;100.00;100990.53;5092013;28;20541;-63
2023/07/27 00:18:11;;;;;;;5.18;2.95;;;;;;;18.00;100.00;100997.00;5094167;28;20399;-71
2023/07/27 00:20:36;;;;;;;5.85;3.20;;;;;;;17.92;100.00;100990.34;5092231;28;20518;-73
2023/07/27 00:23:01;;;;;;;8.85;4.03;;;;;;;17.87;100.00;100992.44;5090991;28;20035;-73
2023/07/27 00:25:27;;;;;;;6.05;3.47;;;;;;;17.88;100.00;100991.47;5092902;28;20024;-73
2023/07/27 00:27:52;;;;;;;8.27;3.95;;;;;;;17.83;100.00;100990.06;5091890;28;20024;-66
2023/07/27 00:30:17;;;;;;;6.28;4.43;;;;;;;17.71;100.00;100989.00;5093404;28;20028;-72
2023/07/27 00:32:43;;;;;;;6.57;3.35;;;;;;;17.67;100.00;100991.88;5092989;28;20464;-72
2023/07/27 00:35:08;;;;;;;7.80;4.63;;;;;;;17.59;100.00;100987.97;5090845;28;20165;-62
2023/07/27 00:37:33;;;;;;;9.15;4.78;;;;;;;17.52;100.00;100987.50;5092553;28;20054;-69
2023/07/27 00:39:59;;;;;;;8.48;4.50;;;;;;;17.42;100.00;100982.72;5092177;28;20494;-73
2023/07/27 00:42:24;;;;;;;9.48;3.65;;;;;;;17.36;100.00;100980.41;5091486;28;20136;-74
2023/07/27 00:44:49;;;;;;;7.65;3.80;;;;;;;17.22;100.00;100980.41;5092156;28;20024;-72
2023/07/27 00:47:15;;;;;;;5.85;3.08;;;;;;;17.23;100.00;100971.47;5091821;28;20024;-72
2023/07/27 00:49:40;;;;;;;7.40;3.10;;;;;;;17.14;100.00;100976.41;5093407;28;20028;-74
2023/07/27 00:52:07;;;;;;;5.43;3.20;;;;;;;16.99;100.00;100969.28;5092968;28;20031;-72
2023/07/27 00:54:34;;;;;;;4.68;2.72;;;;;;;16.97;100.00;100963.19;5078382;28;20396;-74
2023/07/27 00:56:59;;;;;;;3.25;2.63;;;;;;;16.86;100.00;100959.34;5071647;28;20020;-67
2023/07/27 00:59:25;;;;;;;5.55;3.28;;;;;;;16.74;100.00;100954.75;5070222;28;20031;-73
2023/07/27 01:01:51;;;;;;;7.60;3.40;;;;;;;16.67;100.00;100954.25;5071225;28;20063;-67
2023/07/27 01:04:16;;;;;;;8.93;3.58;;;;;;;16.72;100.00;100946.00;5072362;28;20023;-70
2023/07/27 01:06:42;;;;;;;9.32;3.67;;;;;;;16.64;100.00;100943.78;5084758;28;20031;-74
2023/07/27 01:09:07;;;;;;;7.38;3.50;;;;;;;16.68;100.00;100934.69;5092342;28;20524;-71
2023/07/27 01:11:59;;;;;;;9.60;4.05;;;;;;;16.62;100.00;100935.06;5135818;22;20053;-74
2023/07/27 01:14:25;;;;;;;6.18;3.80;;;;;;;16.58;100.00;100928.19;5029199;28;20075;-67
2023/07/27 01:17:08;;;;;;;6.85;3.50;;;;;;;16.52;100.00;100918.75;5030986;28;20037;-73
2023/07/27 01:20:11;;;;;;;9.57;4.10;;;;;;;16.50;100.00;100910.84;5010910;28;20026;-73
2023/07/27 01:22:56;;;;;;;6.80;4.22;;;;;;;16.45;100.00;100901.44;5010242;28;20041;-66
2023/07/27 01:25:50;;;;;;;6.85;4.18;;;;;;;16.49;100.00;100902.97;5009238;28;20029;-73
2023/07/27 01:29:03;;;;;;;8.65;4.22;;;;;;;16.44;100.00;100895.28;5009137;28;20091;-72
2023/07/27 01:31:41;;;;;;;6.57;4.32;;;;;;;16.41;100.00;100896.28;4994203;28;20042;-74
2023/07/27 01:34:10;;;;;;;5.85;4.00;;;;;;;16.36;100.00;100885.09;5027727;28;20041;-72
2023/07/27 01:36:38;;;;;;;7.63;4.35;;;;;;;16.35;100.00;100886.03;5028349;28;20025;-69
2023/07/27 01:39:06;;;;;;;7.78;4.15;;;;;;;16.39;100.00;100878.72;5028914;28;20034;-71
2023/07/27 01:41:32;;;;;;;7.00;3.95;;;;;;;16.36;100.00;100877.09;5028695;28;20062;-73
2023/07/27 01:43:58;;;;;;;5.43;3.97;;;;;;;16.29;100.00;100878.41;5027682;28;20029;-68
2023/07/27 01:46:24;;;;;;;5.55;3.40;;;;;;;16.38;100.00;100869.03;5012104;28;20052;-73
2023/07/27 01:48:50;;;;;;;6.85;3.90;;;;;;;16.27;100.00;100856.38;5028526;28;20025;-66
2023/07/27 01:51:15;;;;;;;7.45;4.07;;;;;;;16.33;100.00;100856.00;5028737;28;20018;-74
2023/07/27 01:53:42;;;;;;;6.28;3.95;;;;;;;16.27;100.00;100851.03;5028931;28;20116;-74
2023/07/27 01:56:08;;;;;;;4.43;3.67;;;;;;;16.28;100.00;100845.66;5028273;28;20041;-73
2023/07/27 01:58:35;;;;;;;8.57;4.20;;;;;;;16.24;100.00;100835.28;5027591;28;20075;-73
2023/07/27 02:01:01;;;;;;;5.85;4.05;;;;;;;16.25;100.00;100839.63;5027897;28;20033;-71
2023/07/27 02:03:26;;;;;;;6.45;4.30;;;;;;;16.26;100.00;100836.88;5029720;28;20025;-72
2023/07/27 02:05:51;;;;;;;5.97;3.95;;;;;;;16.31;100.00;100826.00;5030436;28;20414;-72
2023/07/27 02:08:17;;;;;;;6.35;4.45;;;;;;;16.37;100.00;100822.97;5029666;28;20045;-73
2023/07/27 02:10:50;;;;;;;6.47;4.00;;;;;;;16.34;100.00;100815.19;5028020;28;20041;-64
2023/07/27 02:13:21;;;;;;;8.27;4.30;;;;;;;16.28;100.00;100811.09;5028003;28;20021;-74
2023/07/27 02:16:07;;;;;;;6.93;4.50;;;;;;;16.23;100.00;100814.97;5029146;28;20376;-75
2023/07/27 02:18:34;;;;;;;7.97;4.95;;;;;;;16.17;100.00;100809.03;5028006;28;20025;-70
2023/07/27 02:21:00;;;;;;;9.85;4.60;;;;;;;16.17;100.00;100795.75;5027576;28;20026;-74
2023/07/27 02:23:26;;;;;;;5.85;4.30;;;;;;;16.21;100.00;100798.22;5027972;28;20033;-72
2023/07/27 02:25:52;;;;;;;8.82;4.90;;;;;;;16.22;100.00;100784.00;5027329;28;20033;-73
2023/07/27 02:28:17;;;;;;;4.78;3.85;;;;;;;16.24;100.00;100776.78;5029176;28;20108;-70
2023/07/27 02:30:42;;;;;;;7.55;4.50;;;;;;;16.12;100.00;100767.72;5029091;28;20434;-74
2023/07/27 02:33:08;;;;;;;7.35;4.22;;;;;;;16.12;100.00;100757.97;5028995;28;20025;-73
2023/07/27 02:35:33;;;;;;;9.32;5.20;;;;;;;16.07;100.00;100749.38;5029300;28;20116;-73
2023/07/27 02:37:58;;;;;;;8.65;5.63;;;;;;;16.07;100.00;100744.06;5040786;28;20037;-71
2023/07/27 02:40:24;;;;;;;7.55;5.20;;;;;;;16.13;100.00;100737.53;5048982;28;20040;-72
2023/07/27 02:42:49;;;;;;;7.55;5.65;;;;;;;16.05;100.00;100730.03;5048813;28;20021;-74
2023/07/27 02:45:14;;;;;;;8.90;6.30;;;;;;;16.15;100.00;100725.88;5033924;28;20392;-73
2023/07/27 02:47:40;;;;;;;8.40;6.38;;;;;;;16.11;100.00;100713.75;5029166;28;20026;-68
2023/07/27 02:50:06;;;;;;;10.52;6.05;;;;;;;16.16;100.00;100710.78;5027910;28;20030;-73
2023/07/27 02:52:31;;;;;;;9.85;5.57;;;;;;;16.16;100.00;100709.00;5028865;28;20025;-72
2023/07/27 02:54:56;;;;;;;8.90;6.35;;;;;;;16.14;100.00;100697.56;5027725;28;20025;-67
2023/07/27 02:57:22;;;;;;;7.78;5.50;;;;;;;16.07;100.00;100698.91;5027558;28;20037;-70
2023/07/27 02:59:47;;;;;;;8.20;6.13;;;;;;;16.15;100.00;100688.69;5029420;28;20086;-71
2023/07/27 03:02:12;;;;;;;7.47;6.32;;;;;;;16.10;100.00;100685.44;5028535;28;20025;-74
2023/07/27 03:04:38;;;;;;;7.65;6.35;;;;;;;16.10;100.00;100690.75;5028796;28;20362;-69
2023/07/27 03:07:03;;;;;;;10.27;6.90;;;;;;;16.16;100.00;100673.56;5028318;28;20060;-72
2023/07/27 03:09:29;;;;;;;10.32;6.68;;;;;;;16.13;100.00;100669.31;5028550;28;20041;-72
2023/07/27 03:11:54;;;;;;;13.30;7.55;;;;;;;16.14;100.00;100671.00;5027679;28;20045;-65
2023/07/27 03:14:20;;;;;;;9.15;7.13;;;;;;;16.17;100.00;100668.16;5028856;28;20028;-71
2023/07/27 03:16:45;;;;;;;14.70;7.57;;;;;;;16.15;100.00;100663.88;5027669;28;20101;-73
2023/07/27 03:19:10;;;;;;;14.20;8.48;;;;;;;16.17;100.00;100662.84;5028164;28;20533;-73
2023/07/27 03:21:36;;;;;;;13.32;8.68;;;;;;;16.18;100.00;100655.72;5027284;28;20036;-75
2023/07/27 03:24:01;;;;;;;12.40;8.63;;;;;;;16.15;100.00;100658.56;5028174;28;20025;-69
2023/07/27 03:26:26;;;;;;;12.40;8.68;;;;;;;16.16;100.00;100646.97;5028125;28;20033;-71
2023/07/27 03:28:52;;;;;;;12.30;8.45;;;;;;;16.23;100.00;100642.16;5028471;28;20025;-73
2023/07/27 03:31:19;;;;;;;16.98;8.70;;;;;;;16.22;100.00;100630.66;5029227;28;20350;-75
2023/07/27 03:33:45;;;;;;;11.27;8.00;;;;;;;16.26;100.00;100618.88;5013288;28;20149;-71
2023/07/27 03:36:10;;;;;;;15.57;8.95;;;;;;;16.08;100.00;100623.56;5008868;28;20546;-71
2023/07/27 03:38:36;;;;;;;10.40;7.63;;;;;;;16.20;100.00;100608.66;5019407;28;20041;-74
2023/07/27 03:41:02;;;;;;;10.02;6.93;;;;;;;16.22;100.00;100613.88;5028616;28;20110;-73
2023/07/27 03:43:27;;;;;;;13.10;7.40;;;;;;;16.16;100.00;100607.13;5027017;28;20017;-71
2023/07/27 03:45:53;;;;;;;12.77;8.00;;;;;;;16.12;100.00;100609.13;5028704;28;20116;-66
2023/07/27 03:48:18;;;;;;;10.98;7.22;;;;;;;16.11;100.00;100606.56;5028340;28;20037;-75
2023/07/27 03:50:43;;;;;;;11.65;8.07;;;;;;;16.10;100.00;100600.38;5026793;28;20156;-67
2023/07/27 03:53:09;;;;;;;12.05;8.52;;;;;;;16.13;100.00;100610.81;5028056;28;20025;-71
2023/07/27 03:55:34;;;;;;;10.75;8.07;;;;;;;16.11;100.00;100601.25;5027390;28;20037;-74
2023/07/27 03:58:00;;;;;;;12.63;8.38;;;;;;;16.02;100.00;100602.66;5007514;28;20613;-71
2023/07/27 04:00:25;;;;;;;11.57;8.13;;;;;;;16.02;100.00;100587.56;5007756;28;20029;-69
2023/07/27 04:02:50;;;;;;;10.50;7.90;;;;;;;16.08;100.00;100591.66;5008478;28;20022;-74
2023/07/27 04:05:16;;;;;;;10.68;8.40;;;;;;;16.09;100.00;100585.38;5016076;28;20035;-72
2023/07/27 04:07:41;;;;;;;16.10;8.45;;;;;;;16.00;100.00;100581.50;5043312;28;20104;-74
2023/07/27 04:10:07;;;;;;;11.35;7.82;;;;;;;15.96;100.00;100577.31;5027812;28;20022;-69
2023/07/27 04:12:33;;;;;;;14.00;8.40;;;;;;;16.02;100.00;100576.09;5030269;28;20675;-72
2023/07/27 04:14:58;;;;;;;13.20;8.52;;;;;;;16.01;100.00;100572.56;5031066;28;20051;-72
2023/07/27 04:17:23;;;;;;;11.90;8.48;;;;;;;16.03;100.00;100567.16;5030659;28;20091;-72
2023/07/27 04:19:49;;;;;;;11.93;8.40;;;;;;;16.05;100.00;100559.97;5032159;28;20040;-74
2023/07/27 04:22:14;;;;;;;11.80;8.13;;;;;;;16.09;100.00;100555.28;5030037;28;20032;-76
2023/07/27 04:24:44;;;;;;;10.48;8.38;;;;;;;16.13;100.00;100562.97;5029785;28;20064;-73
2023/07/27 04:27:10;;;;;;;11.90;8.77;;;;;;;16.13;100.00;100564.78;5029955;28;20064;-71
2023/07/27 04:29:35;;;;;;;13.23;8.57;;;;;;;16.11;100.00;100556.06;5030690;28;20026;-70
2023/07/27 04:32:00;;;;;;;11.70;8.50;;;;;;;16.09;100.00;100553.50;5030597;28;20032;-74
2023/07/27 04:34:26;;;;;;;11.43;8.45;;;;;;;16.15;100.00;100550.47;5031148;28;20537;-75
2023/07/27 04:36:51;;;;;;;9.98;7.65;;;;;;;16.15;100.00;100549.59;5031036;28;20390;-75
2023/07/27 04:39:16;;;;;;;11.25;8.35;;;;;;;16.12;100.00;100544.47;5031466;28;20382;-64
2023/07/27 04:41:42;;;;;;;9.93;7.57;;;;;;;16.14;100.00;100538.09;5029256;28;20029;-73
2023/07/27 04:44:07;;;;;;;14.60;8.23;;;;;;;16.20;100.00;100541.34;5031206;28;20025;-73
2023/07/27 04:46:32;;;;;;;11.73;7.38;;;;;;;16.29;100.00;100530.13;5029485;28;20331;-74
2023/07/27 04:48:58;;;;;;;9.00;6.47;;;;;;;16.32;100.00;100529.94;5031127;28;20021;-72
2023/07/27 04:51:23;;;;;;;9.63;6.85;;;;;;;16.31;100.00;100533.53;5028719;28;20118;-72
2023/07/27 04:53:48;;;;;;;8.43;6.30;;;;;;;16.28;100.00;100517.78;5031319;28;20045;-68
2023/07/27 04:56:14;;;;;;;9.68;6.05;;;;;;;16.37;100.00;100519.84;5030072;28;20044;-71
2023/07/27 04:58:39;;;;;;;10.23;5.82;;;;;;;16.36;100.00;100515.50;5029315;28;20026;-70
2023/07/27 05:01:04;;;;;;;8.15;5.88;;;;;;;16.41;100.00;100524.03;5030683;28;20029;-70
2023/07/27 05:03:30;;;;;;;7.43;5.82;;;;;;;16.39;100.00;100507.34;5030363;28;20017;-68
2023/07/27 05:05:55;;;;;;;8.05;6.05;;;;;;;16.45;100.00;100498.09;5030556;28;20132;-67
2023/07/27 05:08:20;;;;;;;7.38;5.80;;;;;;;16.46;100.00;100501.63;5029586;28;20022;-71
2023/07/27 05:10:46;;;;;;;6.78;5.22;;;;;;;16.54;100.00;100496.66;5030083;28;20022;-69
2023/07/27 05:13:11;;;;;;;5.07;4.40;;;;;;;16.65;100.00;100490.66;5029738;28;20060;-69
2023/07/27 05:15:39;;;;;;;5.22;4.53;;;;;;;16.72;100.00;100483.97;5028461;28;20453;-70
2023/07/27 05:18:05;;;;;;;5.45;4.95;;;;;;;16.61;100.00;100475.81;5030683;28;20033;-71
2023/07/27 05:20:32;;;;;;;5.45;4.78;;;;;;;16.63;100.00;100488.09;5029662;28;20473;-72
2023/07/27 05:22:57;;;;;;;4.78;4.38;;;;;;;16.54;100.00;100489.53;5030819;28;20359;-71
2023/07/27 05:25:23;;;;;;;5.65;4.03;;;;;;;16.65;100.00;100483.50;5029359;28;20041;-68
2023/07/27 05:27:48;;;;;;;5.60;4.10;;;;;;;16.73;100.00;100480.34;5029513;28;20043;-71
2023/07/27 05:30:13;;;;;;;5.22;3.40;;;;;;;16.79;100.00;100473.75;5030226;28;20022;-69
2023/07/27 05:32:39;;;;;;;3.72;3.40;;;;;;;16.74;100.00;100475.88;5029837;28;20022;-69
2023/07/27 05:35:04;;;;;;;3.80;3.05;;;;;;;16.86;100.00;100480.38;5029990;28;20029;-68
2023/07/27 05:37:30;;;;;;;4.85;3.38;;;;;;;16.82;100.00;100475.38;5028651;28;20457;-72
2023/07/27 05:39:56;;;;;;;3.65;3.25;;;;;;;16.91;100.00;100466.75;5030080;28;20537;-71
2023/07/27 05:42:21;;;;;;;2.72;2.53;;;;;;;16.96;100.00;100464.66;5028478;28;20100;-71
2023/07/27 05:44:47;;;;;;;2.70;2.50;;;;;;;17.02;100.00;100460.72;5029729;28;20366;-65
2023/07/27 05:47:13;;;;;;;4.68;3.10;;;;;;;17.00;100.00;100465.28;5027422;28;20389;-70
2023/07/27 05:49:39;;;;;;;3.10;2.90;;;;;;;17.09;100.00;100464.72;5028979;28;20029;-69
2023/07/27 05:52:05;;;;;;;4.03;3.28;;;;;;;17.04;100.00;100453.50;5028209;28;20043;-69
2023/07/27 05:54:30;;;;;;;3.30;3.00;;;;;;;16.99;100.00;100459.13;5029812;28;20561;-73
2023/07/27 05:56:56;;;;;;;3.42;3.13;;;;;;;17.09;100.00;100445.22;5024861;28;20096;-69
2023/07/27 05:59:21;;;;;;;4.50;3.03;;;;;;;17.17;100.00;100454.41;5029976;28;20032;-71
2023/07/27 06:01:46;;;;;;;3.60;3.30;;;;;;;17.16;100.00;100452.69;5028401;28;20036;-71
2023/07/27 06:04:12;;;;;;;4.30;3.00;;;;;;;17.20;100.00;100449.81;5029414;28;20508;-74
2023/07/27 06:06:37;;;;;;;4.45;3.40;;;;;;;17.13;100.00;100444.91;5029086;28;20454;-69
2023/07/27 06:09:03;;;;;;;3.38;3.10;;;;;;;17.20;100.00;100444.50;5029775;28;20111;-71
2023/07/27 06:11:28;;;;;;;4.47;3.05;;;;;;;17.34;100.00;100446.22;5026293;28;20041;-70
2023/07/27 06:13:53;;;;;;;3.00;2.80;;;;;;;17.48;100.00;100443.44;5029266;28;20026;-69
2023/07/27 06:16:19;;;;;;;4.05;2.67;;;;;;;17.53;100.00;100435.13;5028616;28;20026;-68
2023/07/27 06:18:44;;;;;;;3.78;2.30;;;;;;;17.58;100.00;100434.81;5029585;28;20026;-71
2023/07/27 06:21:10;;;;;;;2.75;2.55;;;;;;;17.63;100.00;100440.66;5026211;28;20045;-69
2023/07/27 06:23:35;;;;;;;2.08;1.98;;;;;;;17.65;100.00;100431.63;5028478;28;20504;-65
2023/07/27 06:26:00;;;;;;;2.40;2.20;;;;;;;17.83;100.00;100431.25;5027028;28;20029;-67
2023/07/27 06:28:26;;;;;;;2.97;1.80;;;;;;;17.92;100.00;100427.94;5028313;28;20128;-74
2023/07/27 06:30:51;;;;;;;1.70;1.60;;;;;;;18.03;100.00;100431.66;5028769;28;20049;-72
2023/07/27 06:33:17;;;;;;;2.17;1.67;;;;;;;18.17;100.00;100423.53;5027993;28;20469;-71
2023/07/27 06:35:42;;;;;;;1.63;1.50;;;;;;;18.11;100.00;100421.31;5029277;28;20086;-70
2023/07/27 06:38:08;;;;;;;1.17;1.17;;;;;;;18.26;100.00;100418.47;5027071;28;20420;-69
2023/07/27 06:40:34;;;;;;;1.23;1.13;;;;;;;18.27;100.00;100412.19;5027981;28;20029;-67
2023/07/27 06:42:59;;;;;;;1.40;1.30;;;;;;;18.39;100.00;100421.09;5026679;28;20331;-67
2023/07/27 06:45:24;;;;;;;1.20;1.10;;;;;;;18.54;100.00;100419.94;5029028;28;20044;-68
2023/07/27 06:47:50;;;;;;;1.63;1.20;;;;;;;18.53;100.00;100415.59;5028836;28;20112;-68
2023/07/27 06:50:15;;;;;;;2.17;1.40;;;;;;;18.60;100.00;100412.47;5028953;28;20091;-64
2023/07/27 06:52:41;;;;;;;2.78;1.25;;;;;;;18.60;100.00;100412.47;5028418;28;20022;-67
2023/07/27 06:55:06;;;;;;;1.25;1.13;;;;;;;18.58;100.00;100420.59;5028781;28;20041;-69
2023/07/27 06:57:32;;;;;;;1.83;1.08;;;;;;;18.51;100.00;100420.19;5024103;28;20033;-67
2023/07/27 06:59:57;;;;;;;2.05;1.30;;;;;;;18.53;100.00;100420.06;5028166;28;20018;-72
2023/07/27 07:02:23;;;;;;;2.35;1.27;;;;;;;18.57;100.00;100416.19;5027408;28;20112;-68
2023/07/27 07:04:48;;;;;;;1.60;1.50;;;;;;;18.42;100.00;100421.72;5028526;28;20025;-65
2023/07/27 07:07:14;;;;;;;5.30;1.88;;;;;;;18.34;100.00;100420.59;5027823;28;20029;-71
2023/07/27 07:09:39;;;;;;;5.25;1.73;;;;;;;18.42;100.00;100434.19;5028438;28;20013;-69
2023/07/27 07:12:06;;;;;;;4.13;2.10;;;;;;;18.39;100.00;100421.94;5023578;28;20073;-73
2023/07/27 07:14:31;;;;;;;4.70;1.92;;;;;;;18.26;100.00;100429.13;5028147;28;20484;-70
2023/07/27 07:16:58;;;;;;;8.63;2.33;;;;;;;18.24;100.00;100428.41;5027548;28;20100;-73
2023/07/27 07:19:23;;;;;;;3.13;2.08;;;;;;;18.27;100.00;100428.19;5028549;28;20022;-69
2023/07/27 07:21:49;;;;;;;8.75;2.40;;;;;;;18.23;100.00;100424.88;5028349;28;20367;-72
2023/07/27 07:24:14;;;;;;;5.18;2.25;;;;;;;18.30;100.00;100422.59;5028316;28;20482;-70
2023/07/27 07:26:39;;;;;;;3.65;2.50;;;;;;;18.31;100.00;100424.34;5025754;28;20045;-64
2023/07/27 07:29:05;;;;;;;4.72;2.20;;;;;;;18.30;100.00;100419.94;5028629;28;20026;-70
2023/07/27 07:31:30;;;;;;;3.40;2.10;;;;;;;18.35;100.00;100417.81;5027610;28;20100;-69
2023/07/27 07:33:56;;;;;;;5.03;2.33;;;;;;;18.37;100.00;100415.88;5029090;28;20381;-69
2023/07/27 07:36:22;;;;;;;3.80;1.75;;;;;;;18.44;100.00;100413.59;5026846;28;20050;-68
2023/07/27 07:38:47;;;;;;;2.53;1.50;;;;;;;18.49;100.00;100415.94;5027816;28;20075;-69
2023/07/27 07:41:12;;;;;;;2.22;1.17;;;;;;;18.46;100.00;100411.69;5027908;28;20030;-70
2023/07/27 07:43:39;;;;;;;2.17;1.30;;;;;;;18.46;100.00;100413.50;5026946;28;20025;-67
2023/07/27 07:46:08;;;;;;;2.80;1.20;;;;;;;18.55;100.00;100410.16;5031516;28;20049;-67
2023/07/27 07:48:34;;;;;;;2.90;1.20;;;;;;;18.62;100.00;100411.38;5031471;28;20482;-69
2023/07/27 07:50:59;;;;;;;3.58;1.40;;;;;;;18.57;100.00;100402.84;5032151;28;20041;-69
2023/07/27 07:53:24;;;;;;;3.47;1.58;;;;;;;18.71;100.00;100408.97;5031412;28;20454;-70
2023/07/27 07:55:50;;;;;;;1.55;1.27;;;;;;;18.72;100.00;100410.69;5031164;28;20017;-69
2023/07/27 07:58:15;;;;;;;3.80;2.03;;;;;;;18.70;100.00;100397.47;5031003;28;20013;-70
2023/07/27 08:00:40;;;;;;;3.15;1.48;;;;;;;18.68;100.00;100402.06;5029866;28;20150;-72
2023/07/27 08:03:06;;;;;;;3.92;1.92;;;;;;;18.70;100.00;100408.13;5030546;28;20138;-72
2023/07/27 08:05:31;;;;;;;4.93;1.40;;;;;;;18.81;100.00;100401.97;5030736;28;20036;-66
2023/07/27 08:07:56;;;;;;;4.15;1.63;;;;;;;18.79;100.00;100407.41;5031025;28;20022;-69
2023/07/27 08:10:22;;;;;;;5.88;1.70;;;;;;;18.80;100.00;100400.28;5032165;28;20045;-70
2023/07/27 08:12:49;;;;;;;3.47;1.65;;;;;;;18.75;100.00;100402.47;5013763;28;20122;-69
2023/07/27 08:15:15;;;;;;;2.72;1.20;;;;;;;18.87;100.00;100398.84;5019395;28;20026;-70
2023/07/27 08:17:40;;;;;;;7.00;1.73;;;;;;;18.91;100.00;100397.63;5030968;28;20481;-68
2023/07/27 08:20:06;;;;;;;3.38;1.70;;;;;;;18.87;100.00;100387.34;5031313;28;20048;-68
2023/07/27 08:22:32;;;;;;;5.28;1.50;;;;;;;18.99;100.00;100397.03;5029596;28;20125;-70
2023/07/27 08:24:57;;;;;;;7.80;1.63;;;;;;;19.05;100.00;100396.56;5029089;28;20108;-70
2023/07/27 08:27:22;;;;;;;5.60;1.40;;;;;;;19.04;100.00;100386.88;5029864;28;20022;-68
2023/07/27 08:29:48;;;;;;;6.13;1.75;;;;;;;19.04;100.00;100389.53;5031277;28;20078;-69
2023/07/27 08:32:13;;;;;;;4.13;1.60;;;;;;;18.96;100.00;100391.13;5029996;28;20028;-68
2023/07/27 08:34:38;;;;;;;4.05;1.70;;;;;;;19.04;100.00;100399.38;5029922;28;20044;-68
2023/07/27 08:37:04;;;;;;;7.88;1.58;;;;;;;18.92;100.00;100390.47;5030354;28;20064;-72
2023/07/27 08:39:29;;;;;;;3.72;1.83;;;;;;;18.89;100.00;100382.72;5029674;28;20024;-68
2023/07/27 08:41:55;;;;;;;5.53;1.70;;;;;;;18.99;100.00;100389.03;5025934;28;20034;-69
2023/07/27 08:44:20;;;;;;;5.75;1.63;;;;;;;19.10;100.00;100384.72;5029681;28;20028;-69
2023/07/27 08:46:46;;;;;;;6.00;1.40;;;;;;;19.18;100.00;100385.81;5029361;28;20017;-68
2023/07/27 08:49:14;;;;;;;4.07;1.45;;;;;;;19.32;100.00;100381.22;5029622;28;20385;-70
2023/07/27 08:51:41;;;;;;;1.92;1.17;;;;;;;19.30;100.00;100394.69;5029673;28;20033;-70
2023/07/27 08:54:06;;;;;;;3.63;1.30;;;;;;;19.23;100.00;100398.00;5028405;28;20430;-70
2023/07/27 08:56:32;;;;;;;5.55;1.25;;;;;;;19.36;100.00;100392.53;5028354;28;20022;-69
2023/07/27 08:58:57;;;;;;;4.32;1.17;;;;;;;19.53;100.00;100386.69;5030979;28;20462;-68
2023/07/27 09:01:23;;;;;;;10.32;1.40;;;;;;;19.64;100.00;100391.19;5029507;28;20026;-68
2023/07/27 09:03:48;;;;;;;2.90;1.13;;;;;;;19.66;100.00;100396.41;5029022;28;20022;-68
2023/07/27 09:06:14;;;;;;;1.52;0.70;;;;;;;19.56;100.00;100391.78;5029490;28;20358;-69
2023/07/27 09:08:39;;;;;;;2.05;1.23;;;;;;;19.63;100.00;100389.47;5027187;28;20026;-67
2023/07/27 09:11:06;;;;;;;4.03;1.08;;;;;;;19.81;100.00;100397.00;5028809;28;20505;-72
2023/07/27 09:13:31;;;;;;;3.58;0.90;;;;;;;20.00;100.00;100395.50;5028233;28;20044;-68
2023/07/27 09:15:57;;;;;;;3.70;1.20;;;;;;;20.03;100.00;100390.81;5027430;28;20029;-73
2023/07/27 09:18:22;;;;;;;4.25;1.42;;;;;;;20.15;100.00;100394.31;5028803;28;20066;-64
2023/07/27 09:20:47;;;;;;;2.63;0.80;;;;;;;19.98;100.00;100392.13;5029076;28;20105;-68
2023/07/27 09:23:20;;;;;;;2.13;0.80;;;;;;;19.98;100.00;100386.78;5029165;28;20025;-67
2023/07/27 09:25:53;;;;;;;2.45;0.77;;;;;;;19.91;100.00;100403.31;5019842;28;20111;-70
2023/07/27 09:28:28;;;;;;;1.85;0.80;;;;;;;19.95;100.00;100394.06;5010258;28;20445;-70
2023/07/27 09:30:59;;;;;;;4.15;0.98;;;;;;;19.82;100.00;100382.66;5009976;28;20030;-70
2023/07/27 09:33:24;;;;;;;3.03;1.05;;;;;;;19.97;100.00;100385.91;5010486;28;20041;-71
2023/07/27 09:35:50;;;;;;;2.78;1.20;;;;;;;19.99;100.00;100384.00;5019536;28;20381;-67
2023/07/27 09:38:15;;;;;;;3.38;0.82;;;;;;;20.04;100.00;100388.97;5028438;28;20094;-69
2023/07/27 09:40:40;;;;;;;1.77;0.82;;;;;;;20.17;100.00;100386.97;5027597;28;20362;-71
2023/07/27 09:43:07;;;;;;;3.33;1.02;;;;;;;20.30;100.00;100394.00;5029254;28;20477;-68
2023/07/27 09:45:37;;;;;;;3.90;0.93;;;;;;;20.49;100.00;100390.66;5027605;28;20052;-69
2023/07/27 09:48:03;;;;;;;2.38;0.98;;;;;;;20.66;100.00;100388.38;5029926;28;20025;-68
2023/07/27 09:50:30;;;;;;;3.55;1.10;;;;;;;20.52;100.00;100389.53;5029273;28;20017;-64
2023/07/27 09:52:56;;;;;;;4.32;0.93;;;;;;;20.68;100.00;100387.28;5028774;28;20556;-72
2023/07/27 09:55:25;;;;;;;1.88;1.00;;;;;;;20.72;100.00;100390.56;5028537;28;20021;-66
2023/07/27 09:57:51;;;;;;;4.10;1.35;;;;;;;20.62;100.00;100389.63;5029747;28;20028;-71
2023/07/27 10:00:17;;;;;;;2.30;0.90;;;;;;;20.41;100.00;100388.59;5027858;28;20362;-69
2023/07/27 10:02:42;;;;;;;3.67;0.90;;;;;;;20.59;100.00;100396.09;5028742;28;20147;-72
2023/07/27 10:05:08;;;;;;;2.03;1.08;;;;;;;20.56;100.00;100389.16;5028683;28;20033;-72
2023/07/27 10:07:34;;;;;;;5.45;1.48;;;;;;;20.70;100.00;100385.34;5029611;28;20484;-72
2023/07/27 10:10:28;;;;;;;5.28;1.20;;;;;;;20.49;100.00;100395.16;5028204;28;20688;-72
2023/07/27 10:12:59;;;;;;;4.57;1.60;;;;;;;20.27;100.00;100383.56;5026748;28;20041;-68
2023/07/27 10:15:27;;;;;;;4.45;1.40;;;;;;;20.26;100.00;100390.72;5026772;28;20025;-70
2023/07/27 10:17:58;;;;;;;3.90;1.40;;;;;;;20.28;100.00;100385.25;5028909;28;20031;-72
2023/07/27 10:20:29;;;;;;;3.38;1.70;;;;;;;20.32;100.00;100379.53;5027800;28;20493;-69
2023/07/27 10:23:17;;;;;;;4.07;1.20;;;;;;;20.41;100.00;100383.25;5027174;28;20474;-72
2023/07/27 10:25:58;;;;;;;3.03;1.10;;;;;;;20.57;100.00;100388.19;5026877;28;20125;-71
2023/07/27 10:28:43;;;;;;;1.25;0.70;;;;;;;20.66;100.00;100389.25;5025980;28;20029;-67
2023/07/27 10:31:25;;;;;;;1.95;0.95;;;;;;;20.67;100.00;100388.25;5026188;28;20049;-67
2023/07/27 10:34:03;;;;;;;3.85;1.30;;;;;;;20.62;100.00;100390.47;5027353;28;20061;-74
2023/07/27 10:36:47;;;;;;;1.57;0.90;;;;;;;20.67;100.00;100388.25;5027796;28;20032;-72
2023/07/27 10:39:16;;;;;;;4.70;1.20;;;;;;;20.63;100.00;100389.50;5025677;28;20038;-70
2023/07/27 10:41:58;;;;;;;2.55;0.90;;;;;;;20.61;100.00;100390.59;5027866;28;20025;-66
2023/07/27 10:44:42;;;;;;;3.65;1.02;;;;;;;20.58;100.00;100383.69;5026943;28;20024;-70
2023/07/27 10:47:13;;;;;;;3.72;1.23;;;;;;;20.57;100.00;100387.34;5026972;28;20045;-72
2023/07/27 10:49:46;;;;;;;2.33;0.88;;;;;;;20.38;100.00;100383.50;5027795;28;20025;-69
2023/07/27 10:52:19;;;;;;;1.98;0.75;;;;;;;20.32;100.00;100394.75;5025919;28;20036;-68
2023/07/27 10:54:46;;;;;;;2.85;1.10;;;;;;;20.10;100.00;100393.00;5028001;28;20374;-66
2023/07/27 10:57:13;;;;;;;1.75;0.90;;;;;;;20.18;100.00;100394.06;5026623;28;20100;-72
2023/07/27 10:59:41;;;;;;;4.55;1.55;;;;;;;20.27;100.00;100387.09;5028755;28;20056;-71
2023/07/27 11:02:23;;;;;;;1.88;1.00;;;;;;;20.42;100.00;100381.44;5025547;28;20060;-72
2023/07/27 11:04:55;;;;;;;2.75;1.10;;;;;;;20.50;100.00;100387.00;5026845;28;20037;-68
2023/07/27 11:07:32;;;;;;;2.83;0.90;;;;;;;20.50;100.00;100388.84;5028112;28;20025;-63
2023/07/27 11:09:59;;;;;;;2.90;1.10;;;;;;;20.39;100.00;100387.03;5027020;28;20014;-69
2023/07/27 11:12:25;;;;;;;4.10;1.25;;;;;;;20.38;100.00;100401.41;5023976;28;20049;-76
2023/07/27 11:14:51;;;;;;;2.50;1.08;;;;;;;20.26;100.00;100390.72;5028668;28;20029;-69
2023/07/27 11:17:18;;;;;;;2.42;1.10;;;;;;;20.05;100.00;100394.19;5028387;28;20092;-73